createdAt,value
2018-06-02T00:00:15.395Z,96.00
2018-06-02T00:02:43.702Z,96.00
2018-06-02T00:05:11.227Z,96.00
2018-06-02T00:07:39.526Z,95.60
2018-06-02T00:10:07.059Z,95.50
2018-06-02T00:12:35.367Z,95.70
2018-06-02T00:15:02.883Z,95.70
2018-06-02T00:17:30.423Z,95.70
2018-06-02T00:19:57.945Z,95.80
2018-06-02T00:22:25.486Z,95.60
2018-06-02T00:24:53.010Z,95.80
2018-06-02T00:27:20.562Z,95.50
2018-06-02T00:29:48.091Z,95.60
2018-06-02T00:32:15.625Z,95.50
2018-06-02T00:34:43.142Z,95.80
2018-06-02T00:37:10.685Z,96.20
2018-06-02T00:39:38.215Z,96.40
2018-06-02T00:42:05.754Z,97.00
2018-06-02T00:44:33.275Z,96.90
2018-06-02T00:47:00.820Z,96.90
2018-06-02T00:49:28.338Z,97.10
2018-06-02T00:51:55.900Z,97.30
2018-06-02T00:54:35.086Z,97.40
2018-06-02T00:57:02.631Z,97.20
2018-06-02T00:59:30.146Z,97.00
2018-06-02T01:01:57.702Z,97.20
2018-06-02T01:04:25.223Z,97.00
2018-06-02T01:06:53.506Z,96.60
2018-06-02T01:09:21.810Z,96.80
2018-06-02T01:11:49.344Z,96.80
2018-06-02T01:14:16.894Z,97.10
2018-06-02T01:16:45.183Z,97.20
2018-06-02T01:19:13.487Z,97.10
2018-06-02T01:21:41.612Z,97.10
2018-06-02T01:24:10.166Z,97.10
2018-06-02T01:26:37.695Z,97.10
2018-06-02T01:29:05.229Z,97.30
2018-06-02T01:31:33.505Z,97.70
2018-06-02T01:34:01.817Z,97.80
2018-06-02T01:36:29.334Z,97.80
2018-06-02T01:38:57.642Z,98.10
2018-06-02T01:41:25.154Z,98.10
2018-06-02T01:43:52.690Z,98.20
2018-06-02T01:46:20.205Z,98.40
2018-06-02T01:48:47.745Z,98.70
2018-06-02T01:51:15.260Z,98.90
2018-06-02T01:53:42.825Z,98.80
2018-06-02T01:56:10.346Z,98.90
2018-06-02T01:58:37.898Z,99.00
2018-06-02T02:01:05.411Z,99.00
2018-06-02T02:03:32.953Z,99.10
2018-06-02T02:06:00.468Z,99.20
2018-06-02T02:08:28.002Z,99.00
2018-06-02T02:10:56.299Z,99.30
2018-06-02T02:13:23.841Z,99.30
2018-06-02T02:15:52.129Z,99.10
2018-06-02T02:18:19.674Z,99.10
2018-06-02T02:20:47.971Z,99.20
2018-06-02T02:23:15.510Z,99.20
2018-06-02T02:25:43.794Z,99.10
2018-06-02T02:28:11.346Z,99.10
2018-06-02T02:30:39.628Z,99.20
2018-06-02T02:33:07.182Z,99.20
2018-06-02T02:35:34.715Z,99.00
2018-06-02T02:38:02.282Z,98.70
2018-06-02T02:40:29.810Z,98.60
2018-06-02T02:42:57.369Z,99.10
2018-06-02T02:45:24.906Z,98.90
2018-06-02T02:47:52.451Z,98.70
2018-06-02T02:50:19.998Z,98.70
2018-06-02T02:52:47.514Z,98.60
2018-06-02T02:55:15.062Z,98.80
2018-06-02T02:57:42.608Z,98.80
2018-06-02T03:00:10.151Z,98.90
2018-06-02T03:02:37.662Z,98.90
2018-06-02T03:05:05.197Z,98.70
2018-06-02T03:07:32.721Z,98.90
2018-06-02T03:10:00.269Z,99.20
2018-06-02T03:12:27.786Z,99.20
2018-06-02T03:14:55.331Z,99.10
2018-06-02T03:17:22.859Z,98.90
2018-06-02T03:19:50.409Z,98.80
2018-06-02T03:22:17.938Z,98.10
2018-06-02T03:24:46.254Z,98.10
2018-06-02T03:27:13.774Z,98.10
2018-06-02T03:29:42.082Z,98.60
2018-06-02T03:32:09.610Z,98.60
2018-06-02T03:34:37.926Z,98.70
2018-06-02T03:37:05.473Z,98.70
2018-06-02T03:39:33.012Z,98.60
2018-06-02T03:42:01.308Z,98.50
2018-06-02T03:44:28.859Z,98.50
2018-06-02T03:46:56.374Z,98.40
2018-06-02T03:49:23.909Z,98.30
2018-06-02T03:51:51.421Z,98.30
2018-06-02T03:54:19.723Z,98.10
2018-06-02T03:56:47.282Z,98.10
2018-06-02T03:59:14.821Z,97.90
2018-06-02T04:01:42.343Z,98.10
2018-06-02T04:04:09.893Z,97.90
2018-06-02T04:06:37.416Z,98.20
2018-06-02T04:09:04.957Z,98.00
2018-06-02T04:11:33.238Z,98.20
2018-06-02T04:14:00.780Z,98.20
2018-06-02T04:16:28.285Z,98.10
2018-06-02T04:18:55.828Z,97.60
2018-06-02T04:21:23.345Z,97.80
2018-06-02T04:23:51.666Z,97.60
2018-06-02T04:26:19.179Z,97.60
2018-06-02T04:28:47.476Z,98.10
2018-06-02T04:31:15.023Z,98.00
2018-06-02T04:33:43.307Z,97.90
2018-06-02T04:36:10.846Z,97.90
2018-06-02T04:38:39.130Z,98.50
2018-06-02T04:41:07.449Z,98.10
2018-06-02T04:43:34.967Z,98.10
2018-06-02T04:46:02.516Z,97.90
2018-06-02T04:48:30.818Z,97.70
2018-06-02T04:50:58.407Z,98.10
2018-06-02T04:53:25.938Z,97.70
2018-06-02T04:55:53.491Z,97.70
2018-06-02T04:58:21.063Z,97.60
2018-06-02T05:00:48.623Z,97.50
2018-06-02T05:03:16.146Z,97.80
2018-06-02T05:05:44.450Z,97.40
2018-06-02T05:08:11.963Z,97.40
2018-06-02T05:10:39.509Z,97.40
2018-06-02T05:13:07.026Z,97.50
2018-06-02T05:15:34.583Z,97.10
2018-06-02T05:18:02.098Z,97.30
2018-06-02T05:20:29.646Z,97.00
2018-06-02T05:22:57.166Z,97.10
2018-06-02T05:25:24.713Z,97.10
2018-06-02T05:27:52.227Z,96.80
2018-06-02T05:30:19.770Z,96.60
2018-06-02T05:32:47.305Z,95.90
2018-06-02T05:35:14.863Z,96.50
2018-06-02T05:37:42.383Z,96.20
2018-06-02T05:40:10.702Z,96.10
2018-06-02T05:42:38.225Z,96.10
2018-06-02T05:45:06.534Z,95.00
2018-06-02T05:47:34.062Z,95.00
2018-06-02T05:50:01.616Z,95.70
2018-06-02T05:52:29.138Z,95.40
2018-06-02T05:54:56.679Z,95.90
2018-06-02T05:57:24.201Z,96.00
2018-06-02T05:59:51.803Z,96.00
2018-06-02T06:02:19.290Z,95.70
2018-06-02T06:04:47.599Z,95.70
2018-06-02T06:07:15.122Z,95.70
2018-06-02T06:09:43.397Z,95.60
2018-06-02T06:12:11.706Z,95.10
2018-06-02T06:14:39.234Z,95.00
2018-06-02T06:17:07.541Z,95.20
2018-06-02T06:19:35.078Z,94.80
2018-06-02T06:22:03.383Z,94.50
2018-06-02T06:24:30.905Z,94.50
2018-06-02T06:26:59.263Z,94.20
2018-06-02T06:29:26.753Z,94.10
2018-06-02T06:31:54.302Z,94.60
2018-06-02T06:34:22.586Z,94.10
2018-06-02T06:36:50.892Z,93.40
2018-06-02T06:39:18.417Z,93.40
2018-06-02T06:41:46.726Z,93.60
2018-06-02T06:44:14.250Z,93.60
2018-06-02T06:46:42.561Z,92.60
2018-06-02T06:49:10.103Z,92.50
2018-06-02T06:51:37.646Z,92.60
2018-06-02T06:54:05.927Z,93.00
2018-06-02T06:56:33.472Z,93.00
2018-06-02T06:59:01.751Z,93.60
2018-06-02T07:01:30.058Z,93.10
2018-06-02T07:03:57.582Z,93.10
2018-06-02T07:06:25.885Z,92.40
2018-06-02T07:08:53.466Z,92.40
2018-06-02T07:11:20.979Z,91.90
2018-06-02T07:13:49.257Z,92.70
2018-06-02T07:16:16.795Z,92.70
2018-06-02T07:18:44.326Z,92.80
2018-06-02T07:21:11.878Z,93.00
2018-06-02T07:23:39.410Z,92.30
2018-06-02T07:26:06.953Z,91.10
2018-06-02T07:28:35.248Z,90.70
2018-06-02T07:31:02.785Z,90.70
2018-06-02T07:33:31.063Z,90.00
2018-06-02T07:35:58.658Z,90.00
2018-06-02T07:38:26.149Z,90.40
2018-06-02T07:40:53.702Z,90.20
2018-06-02T07:43:21.219Z,89.40
2018-06-02T07:45:49.489Z,88.30
2018-06-02T07:48:17.005Z,87.10
2018-06-02T07:50:44.655Z,86.80
2018-06-02T07:53:12.166Z,87.30
2018-06-02T07:55:39.712Z,85.70
2018-06-02T07:58:07.454Z,86.70
2018-06-02T08:00:35.733Z,88.00
2018-06-02T08:03:04.766Z,86.10
2018-06-02T08:05:32.282Z,86.00
2018-06-02T08:08:00.587Z,83.70
2018-06-02T08:10:28.113Z,84.40
2018-06-02T08:12:56.419Z,82.80
2018-06-02T08:15:23.929Z,82.80
2018-06-02T08:17:51.483Z,85.60
2018-06-02T08:20:18.997Z,84.70
2018-06-02T08:22:46.533Z,83.40
2018-06-02T08:25:14.810Z,84.80
2018-06-02T08:27:43.140Z,85.90
2018-06-02T08:30:10.683Z,85.90
2018-06-02T08:32:38.230Z,85.30
2018-06-02T08:35:05.738Z,86.00
2018-06-02T08:37:33.294Z,87.00
2018-06-02T08:40:00.825Z,86.50
2018-06-02T08:42:28.370Z,84.00
2018-06-02T08:44:55.895Z,85.00
2018-06-02T08:47:24.198Z,84.40
2018-06-02T08:49:51.711Z,84.30
2018-06-02T08:52:20.035Z,82.70
2018-06-02T08:54:47.554Z,82.70
2018-06-02T08:57:15.872Z,76.40
2018-06-02T08:59:43.390Z,76.40
2018-06-02T09:02:10.933Z,77.40
2018-06-02T09:04:38.446Z,78.60
2018-06-02T09:07:05.970Z,76.00
2018-06-02T09:09:33.478Z,76.80
2018-06-02T09:12:01.015Z,75.90
2018-06-02T09:14:28.525Z,76.90
2018-06-02T09:16:56.059Z,74.50
2018-06-02T09:19:23.573Z,77.40
2018-06-02T09:21:51.183Z,73.90
2018-06-02T09:24:19.401Z,74.70
2018-06-02T09:26:46.945Z,74.70
2018-06-02T09:29:15.250Z,73.30
2018-06-02T09:31:42.791Z,73.30
2018-06-02T09:34:10.315Z,74.40
2018-06-02T09:36:37.822Z,70.50
2018-06-02T09:39:05.363Z,73.40
2018-06-02T09:41:32.883Z,69.50
2018-06-02T09:44:00.426Z,70.20
2018-06-02T09:46:27.938Z,73.10
2018-06-02T09:48:55.487Z,73.90
2018-06-02T09:51:23.760Z,68.20
2018-06-02T09:53:51.289Z,68.30
2018-06-02T09:56:18.812Z,69.60
2018-06-02T09:58:46.341Z,72.30
2018-06-02T10:01:14.618Z,67.10
2018-06-02T10:03:42.174Z,66.90
2018-06-02T10:06:10.450Z,66.50
2018-06-02T10:08:38.755Z,64.00
2018-06-02T10:11:06.273Z,63.90
2018-06-02T10:13:33.814Z,61.50
2018-06-02T10:16:01.334Z,61.10
2018-06-02T10:18:28.866Z,61.30
2018-06-02T10:20:57.143Z,62.60
2018-06-02T10:23:25.439Z,64.30
2018-06-02T10:25:52.950Z,64.20
2018-06-02T10:28:20.490Z,62.10
2018-06-02T10:30:48.001Z,64.90
2018-06-02T10:33:15.560Z,64.10
2018-06-02T10:35:43.150Z,60.60
2018-06-02T10:38:10.628Z,60.80
2018-06-02T10:40:38.154Z,57.90
2018-06-02T10:43:05.689Z,56.10
2018-06-02T10:45:33.203Z,55.80
2018-06-02T10:48:00.738Z,55.10
2018-06-02T10:50:28.258Z,56.20
2018-06-02T10:52:56.550Z,56.00
2018-06-02T10:55:24.071Z,55.90
2018-06-02T10:57:54.388Z,54.60
2018-06-02T11:00:23.215Z,58.70
2018-06-02T11:02:50.750Z,58.70
2018-06-02T11:05:19.027Z,58.80
2018-06-02T11:07:47.306Z,52.40
2018-06-02T11:10:15.600Z,55.30
2018-06-02T11:12:43.119Z,55.20
2018-06-02T11:15:11.443Z,51.20
2018-06-02T11:17:38.970Z,51.20
2018-06-02T11:20:07.278Z,51.10
2018-06-02T11:22:34.796Z,51.10
2018-06-02T11:25:03.113Z,52.60
2018-06-02T11:27:30.627Z,52.50
2018-06-02T11:29:58.154Z,51.90
2018-06-02T11:32:25.671Z,48.30
2018-06-02T11:34:53.219Z,48.50
2018-06-02T11:37:21.499Z,53.10
2018-06-02T11:39:49.805Z,51.30
2018-06-02T11:42:17.315Z,51.10
2018-06-02T11:44:44.870Z,48.60
2018-06-02T11:47:12.382Z,48.30
2018-06-02T11:49:39.930Z,51.90
2018-06-02T11:52:07.455Z,52.30
2018-06-02T11:54:35.752Z,51.90
2018-06-02T11:57:03.274Z,51.80
2018-06-02T11:59:30.824Z,50.90
2018-06-02T12:01:58.355Z,51.70
2018-06-02T12:04:25.897Z,51.90
2018-06-02T12:06:53.471Z,48.50
2018-06-02T12:09:21.742Z,51.70
2018-06-02T12:11:49.250Z,51.70
2018-06-02T12:14:16.801Z,54.20
2018-06-02T12:16:44.327Z,57.10
2018-06-02T12:19:11.889Z,58.30
2018-06-02T12:21:39.406Z,56.00
2018-06-02T12:24:06.958Z,55.80
2018-06-02T12:26:35.231Z,58.00
2018-06-02T12:29:03.530Z,56.60
2018-06-02T12:31:31.053Z,56.50
2018-06-02T12:33:58.597Z,59.60
2018-06-02T12:36:26.110Z,57.80
2018-06-02T12:38:53.655Z,53.80
2018-06-02T12:41:21.191Z,55.90
2018-06-02T12:43:49.483Z,50.90
2018-06-02T12:46:17.784Z,51.10
2018-06-02T12:48:45.290Z,51.10
2018-06-02T12:51:12.826Z,52.30
2018-06-02T12:53:40.365Z,49.70
2018-06-02T12:56:07.894Z,49.70
2018-06-02T12:58:35.419Z,50.40
2018-06-02T13:01:02.954Z,50.30
2018-06-02T13:03:30.468Z,50.60
2018-06-02T13:05:58.006Z,45.50
2018-06-02T13:08:26.297Z,48.20
2018-06-02T13:10:54.617Z,46.40
2018-06-02T13:13:22.131Z,46.40
2018-06-02T13:15:50.435Z,48.50
2018-06-02T13:18:17.942Z,48.60
2018-06-02T13:20:45.478Z,45.80
2018-06-02T13:23:12.994Z,48.60
2018-06-02T13:25:40.547Z,45.90
2018-06-02T13:28:08.062Z,46.50
2018-06-02T13:30:35.596Z,45.80
2018-06-02T13:33:03.107Z,44.50
2018-06-02T13:35:31.418Z,42.20
2018-06-02T13:37:58.937Z,42.20
2018-06-02T13:40:27.221Z,46.50
2018-06-02T13:42:55.540Z,47.80
2018-06-02T13:45:23.046Z,47.80
2018-06-02T13:47:51.353Z,41.20
2018-06-02T13:50:18.858Z,41.00
2018-06-02T13:52:46.411Z,37.10
2018-06-02T13:55:13.935Z,40.00
2018-06-02T13:57:41.475Z,41.00
2018-06-02T14:00:08.995Z,42.30
2018-06-02T14:02:36.533Z,46.00
2018-06-02T14:05:04.037Z,47.10
2018-06-02T14:07:31.573Z,42.60
2018-06-02T14:09:59.101Z,40.20
2018-06-02T14:12:26.642Z,36.00
2018-06-02T14:14:54.148Z,34.00
2018-06-02T14:17:21.683Z,37.20
2018-06-02T14:19:49.205Z,36.90
2018-06-02T14:22:16.736Z,37.40
2018-06-02T14:24:44.252Z,39.10
2018-06-02T14:27:11.796Z,41.90
2018-06-02T14:29:39.312Z,44.60
2018-06-02T14:32:07.716Z,51.50
2018-06-02T14:34:35.646Z,51.40
2018-06-02T14:37:03.169Z,51.10
2018-06-02T14:39:30.721Z,51.90
2018-06-02T14:41:58.255Z,51.20
2018-06-02T14:44:25.807Z,52.00
2018-06-02T14:46:53.329Z,53.80
2018-06-02T14:49:20.921Z,54.60
2018-06-02T14:51:48.390Z,55.60
2018-06-02T14:54:15.917Z,49.00
2018-06-02T14:56:44.191Z,52.90
2018-06-02T14:59:12.506Z,53.70
2018-06-02T15:01:40.029Z,53.70
2018-06-02T15:04:08.326Z,53.80
2018-06-02T15:06:35.834Z,53.80
2018-06-02T15:09:03.369Z,56.20
2018-06-02T15:11:30.983Z,54.00
2018-06-02T15:13:59.293Z,56.00
2018-06-02T15:16:26.810Z,55.90
2018-06-02T15:18:54.347Z,55.20
2018-06-02T15:21:21.860Z,48.80
2018-06-02T15:23:49.370Z,43.30
2018-06-02T15:26:17.846Z,41.50
2018-06-02T15:28:45.361Z,39.30
2018-06-02T15:31:12.895Z,38.70
2018-06-02T15:33:41.174Z,46.20
2018-06-02T15:36:08.714Z,46.10
2018-06-02T15:38:36.230Z,48.30
2018-06-02T15:41:03.773Z,50.40
2018-06-02T15:43:31.281Z,50.60
2018-06-02T15:45:58.810Z,51.60
2018-06-02T15:48:26.309Z,52.30
2018-06-02T15:50:54.606Z,52.50
2018-06-02T15:53:22.115Z,52.40
2018-06-02T15:55:49.649Z,52.40
2018-06-02T15:58:17.177Z,53.80
2018-06-02T16:00:44.713Z,51.70
2018-06-02T16:03:12.227Z,52.90
2018-06-02T16:05:39.762Z,55.20
2018-06-02T16:08:07.288Z,55.70
2018-06-02T16:10:35.593Z,57.20
2018-06-02T16:13:03.119Z,57.20
2018-06-02T16:15:31.434Z,56.30
2018-06-02T16:18:01.078Z,56.30
2018-06-02T16:20:28.613Z,58.10
2018-06-02T16:22:56.131Z,58.50
2018-06-02T16:25:24.429Z,59.40
2018-06-02T16:27:51.954Z,59.40
2018-06-02T16:30:19.503Z,62.10
2018-06-02T16:32:47.009Z,59.40
2018-06-02T16:35:14.529Z,59.20
2018-06-02T16:37:42.077Z,61.80
2018-06-02T16:40:09.654Z,61.10
2018-06-02T16:42:37.150Z,59.20
2018-06-02T16:45:04.668Z,61.00
2018-06-02T16:47:32.965Z,58.20
2018-06-02T16:50:00.482Z,58.20
2018-06-02T16:52:28.022Z,59.80
2018-06-02T16:54:55.542Z,58.60
2018-06-02T16:57:23.066Z,59.70
2018-06-02T16:59:50.577Z,60.60
2018-06-02T17:02:18.130Z,62.30
2018-06-02T17:04:46.410Z,62.00
2018-06-02T17:07:13.946Z,62.00
2018-06-02T17:09:41.451Z,60.00
2018-06-02T17:12:08.981Z,59.70
2018-06-02T17:14:36.501Z,60.90
2018-06-02T17:17:04.811Z,62.10
2018-06-02T17:19:32.332Z,62.20
2018-06-02T17:22:00.635Z,64.70
2018-06-02T17:24:28.152Z,64.60
2018-06-02T17:26:55.691Z,66.50
2018-06-02T17:29:23.228Z,64.70
2018-06-02T17:31:50.764Z,64.80
2018-06-02T17:34:18.269Z,63.30
2018-06-02T17:36:45.812Z,65.80
2018-06-02T17:39:13.331Z,67.30
2018-06-02T17:41:40.898Z,67.00
2018-06-02T17:44:08.409Z,68.60
2018-06-02T17:46:35.947Z,69.00
2018-06-02T17:49:03.474Z,68.00
2018-06-02T17:51:31.018Z,70.20
2018-06-02T17:53:59.316Z,70.60
2018-06-02T17:56:26.834Z,70.50
2018-06-02T17:58:54.382Z,70.00
2018-06-02T18:01:21.902Z,70.00
2018-06-02T18:03:49.443Z,70.70
2018-06-02T18:06:16.962Z,71.70
2018-06-02T18:08:44.489Z,72.40
2018-06-02T18:11:11.993Z,72.80
2018-06-02T18:13:40.294Z,73.40
2018-06-02T18:16:07.815Z,73.30
2018-06-02T18:18:36.135Z,75.00
2018-06-02T18:21:03.644Z,74.90
2018-06-02T18:23:31.182Z,75.30
2018-06-02T18:25:58.709Z,75.70
2018-06-02T18:28:26.252Z,75.80
2018-06-02T18:30:53.761Z,76.10
2018-06-02T18:33:21.320Z,76.60
2018-06-02T18:35:48.839Z,76.60
2018-06-02T18:38:16.370Z,76.60
2018-06-02T18:40:44.643Z,77.60
2018-06-02T18:43:12.177Z,77.60
2018-06-02T18:45:39.698Z,77.40
2018-06-02T18:48:07.230Z,78.60
2018-06-02T18:50:34.741Z,78.50
2018-06-02T18:53:02.273Z,79.90
2018-06-02T18:55:29.785Z,80.00
2018-06-02T18:57:58.085Z,81.00
2018-06-02T19:00:25.614Z,80.90
2018-06-02T19:02:53.931Z,82.20
2018-06-02T19:05:21.435Z,81.90
2018-06-02T19:07:48.961Z,82.10
2018-06-02T19:10:16.508Z,83.50
2018-06-02T19:12:44.022Z,84.30
2018-06-02T19:15:11.566Z,84.50
2018-06-02T19:17:39.074Z,84.80
2018-06-02T19:20:06.607Z,85.40
2018-06-02T19:22:34.144Z,86.50
2018-06-02T19:25:01.669Z,85.90
2018-06-02T19:27:29.185Z,86.90
2018-06-02T19:29:56.710Z,86.40
2018-06-02T19:32:24.217Z,86.80
2018-06-02T19:35:29.406Z,87.00
2018-06-02T19:37:58.073Z,87.50
2018-06-02T19:40:26.519Z,87.50
2018-06-02T19:42:54.943Z,87.20
2018-06-02T19:45:23.404Z,87.60
2018-06-02T19:47:51.826Z,88.00
2018-06-02T19:50:20.297Z,88.60
2018-06-02T19:52:48.709Z,89.00
2018-06-02T19:55:17.161Z,89.80
2018-06-02T19:57:45.605Z,90.00
2018-06-02T20:00:14.053Z,90.10
2018-06-02T20:02:44.903Z,90.40
2018-06-02T20:05:13.346Z,90.50
2018-06-02T20:10:09.984Z,90.90
2018-06-02T20:12:38.438Z,91.00
2018-06-02T20:15:06.928Z,91.40
2018-06-02T20:17:35.346Z,91.40
2018-06-02T20:22:32.255Z,91.80
2018-06-02T20:25:03.494Z,92.00
2018-06-02T20:27:34.477Z,91.80
2018-06-02T20:30:03.182Z,91.90
2018-06-02T20:32:31.583Z,91.80
2018-06-02T20:35:00.009Z,91.90
2018-06-02T20:37:28.431Z,92.10
2018-06-02T20:39:56.900Z,92.20
2018-06-02T20:42:25.382Z,92.30
2018-06-02T20:44:53.818Z,92.40
2018-06-02T20:47:22.226Z,92.30
2018-06-02T20:52:18.821Z,92.30
2018-06-02T20:54:47.268Z,92.30
2018-06-02T20:57:15.673Z,92.50
2018-06-02T20:59:44.133Z,92.10
2018-06-02T21:02:12.536Z,92.30
2018-06-02T21:04:40.994Z,92.20
2018-06-02T21:07:09.780Z,91.80
2018-06-02T21:09:38.239Z,92.50
2018-06-02T21:12:06.711Z,92.60
2018-06-02T21:14:35.181Z,92.60
2018-06-02T21:17:03.611Z,92.80
2018-06-02T21:19:32.051Z,92.90
2018-06-02T21:22:00.471Z,93.30
2018-06-02T21:24:28.950Z,93.30
2018-06-02T21:26:57.394Z,93.30
2018-06-02T21:29:25.810Z,93.20
2018-06-02T21:31:54.290Z,93.60
2018-06-02T21:34:22.722Z,93.70
2018-06-02T21:36:51.528Z,93.80
2018-06-02T21:41:48.085Z,93.80
2018-06-02T21:46:44.702Z,93.60
2018-06-02T21:49:13.143Z,93.90
2018-06-02T21:51:41.595Z,94.10
2018-06-02T21:54:10.083Z,94.20
2018-06-02T21:56:38.553Z,94.40
2018-06-02T22:01:35.838Z,94.70
2018-06-02T22:04:04.317Z,94.80
2018-06-02T22:06:32.820Z,94.70
2018-06-02T22:09:01.301Z,94.70
2018-06-02T22:11:29.827Z,94.70
2018-06-02T22:13:58.309Z,94.60
2018-06-02T22:16:26.766Z,94.70
2018-06-02T22:18:55.179Z,94.70
2018-06-02T22:23:51.762Z,94.50
2018-06-02T22:26:20.202Z,94.90
2018-06-02T22:28:50.461Z,94.60
2018-06-02T22:31:18.906Z,94.60
2018-06-02T22:36:15.573Z,95.00
2018-06-02T22:38:43.962Z,94.60
2018-06-02T22:41:12.446Z,94.40
2018-06-02T22:43:40.886Z,94.10
2018-06-02T22:46:09.334Z,94.40
2018-06-02T22:48:37.793Z,95.10
2018-06-02T22:51:06.274Z,95.10
2018-06-02T22:53:34.809Z,95.40
2018-06-02T22:56:03.340Z,95.50
2018-06-02T22:58:31.848Z,95.40
2018-06-02T23:01:00.429Z,95.40
2018-06-02T23:03:28.967Z,95.60
2018-06-02T23:05:57.654Z,95.50
2018-06-02T23:08:26.155Z,95.60
2018-06-02T23:10:54.707Z,95.70
2018-06-02T23:13:23.152Z,95.70
2018-06-02T23:15:51.770Z,95.60
2018-06-02T23:18:20.210Z,95.70
2018-06-02T23:20:48.678Z,95.80
2018-06-02T23:23:17.099Z,95.80
2018-06-02T23:25:45.528Z,95.70
2018-06-02T23:28:13.983Z,95.40
2018-06-02T23:30:42.483Z,95.50
2018-06-02T23:33:10.914Z,95.50
2018-06-02T23:35:39.360Z,95.50
2018-06-02T23:38:07.823Z,95.40
2018-06-02T23:40:36.259Z,95.10
2018-06-02T23:43:04.712Z,95.30
2018-06-02T23:45:33.147Z,95.30
2018-06-02T23:48:01.591Z,95.40
2018-06-02T23:50:30.268Z,95.60
2018-06-02T23:52:58.728Z,95.80
2018-06-02T23:55:27.176Z,95.80
2018-06-02T23:57:55.641Z,95.50
